Terminal Aerodrome Forecast
Issued by NWS Wilmington, NC

Home | Current Version | Previous Version | Text Only | Print | Product List | Glossary On
Versions: 1 2 3 4 5 6 7 8 9 10 11 12 13 14 15 16 17 18 19
000
FTUS42 KILM 211139
TAFILM
TAF
KILM 211139Z 2112/2212 24005KT P6SM SCT020 SCT060 BKN150
      TEMPO 2114/2116 BKN025
     FM211600 20009KT P6SM VCSH BKN030 BKN080
     FM211900 19011KT P6SM SCT035 SCT100 BKN180
     FM220100 21004KT P6SM SCT040 SCT150 BKN200
      TEMPO 2208/2212 4SM BR SCT005 BKN015=

USA.gov is the U.S. government's official web portal to all federal, state and local government web resources and services.